createdAt,value
2018-06-13T00:00:31.375Z,0
2018-06-13T00:01:31.378Z,0
2018-06-13T00:02:31.356Z,0
2018-06-13T00:03:31.349Z,0
2018-06-13T00:04:30.827Z,0
2018-06-13T00:05:30.825Z,0
2018-06-13T00:06:31.078Z,0
2018-06-13T00:07:31.070Z,0
2018-06-13T00:08:30.805Z,0
2018-06-13T00:09:30.793Z,0
2018-06-13T00:10:31.299Z,0
2018-06-13T00:11:31.361Z,0
2018-06-13T00:12:31.295Z,0
2018-06-13T00:13:30.760Z,0
2018-06-13T00:14:30.782Z,0
2018-06-13T00:15:30.753Z,0
2018-06-13T00:16:31.382Z,0
2018-06-13T00:17:31.256Z,0
2018-06-13T00:18:31.347Z,0
2018-06-13T00:19:31.298Z,0
2018-06-13T00:20:31.232Z,0
2018-06-13T00:21:30.972Z,0
2018-06-13T00:22:31.223Z,0
2018-06-13T00:23:31.208Z,0
2018-06-13T00:24:30.956Z,0
2018-06-13T00:25:31.202Z,0
2018-06-13T00:26:31.192Z,0
2018-06-13T00:27:30.927Z,0
2018-06-13T00:28:31.343Z,0
2018-06-13T00:29:31.174Z,0
2018-06-13T00:30:30.909Z,0
2018-06-13T00:31:30.894Z,0
2018-06-13T00:32:30.994Z,0
2018-06-13T00:33:31.143Z,0
2018-06-13T00:34:31.132Z,0
2018-06-13T00:35:31.126Z,0
2018-06-13T00:36:30.609Z,0
2018-06-13T00:37:30.598Z,0
2018-06-13T00:38:31.112Z,0
2018-06-13T00:39:30.584Z,0
2018-06-13T00:40:31.104Z,0
2018-06-13T00:41:31.088Z,0
2018-06-13T00:42:31.084Z,0
2018-06-13T00:43:30.810Z,0
2018-06-13T00:44:31.067Z,0
2018-06-13T00:45:30.807Z,0
2018-06-13T00:46:31.051Z,0
2018-06-13T00:47:31.101Z,0
2018-06-13T00:48:31.027Z,0
2018-06-13T00:49:30.516Z,0
2018-06-13T00:50:30.667Z,0
2018-06-13T00:51:31.015Z,0
2018-06-13T00:52:31.015Z,0
2018-06-13T00:53:31.013Z,0
2018-06-13T00:54:30.995Z,0
2018-06-13T00:55:30.475Z,0
2018-06-13T00:56:30.722Z,0
2018-06-13T00:57:30.973Z,0
2018-06-13T00:58:30.710Z,0
2018-06-13T00:59:30.710Z,0
2018-06-13T01:00:30.440Z,0
2018-06-13T01:01:30.430Z,0
2018-06-13T01:02:30.420Z,0
2018-06-13T01:03:30.933Z,0
2018-06-13T01:04:30.408Z,0
2018-06-13T01:05:30.404Z,0
2018-06-13T01:06:30.407Z,0
2018-06-13T01:07:30.397Z,0
2018-06-13T01:08:30.387Z,0
2018-06-13T01:09:30.887Z,0
2018-06-13T01:10:30.372Z,0
2018-06-13T01:11:30.884Z,0
2018-06-13T01:12:30.872Z,0
2018-06-13T01:13:30.604Z,0
2018-06-13T01:14:30.609Z,0
2018-06-13T01:15:30.584Z,0
2018-06-13T01:16:30.586Z,0
2018-06-13T01:17:30.840Z,0
2018-06-13T01:18:30.569Z,0
2018-06-13T01:19:30.304Z,0
2018-06-13T01:20:30.822Z,0
2018-06-13T01:21:30.548Z,0
2018-06-13T01:22:30.802Z,0
2018-06-13T01:23:30.536Z,0
2018-06-13T01:24:30.786Z,0
2018-06-13T01:25:30.778Z,0
2018-06-13T01:26:30.007Z,0
2018-06-13T01:27:30.765Z,0
2018-06-13T01:28:30.498Z,0
2018-06-13T01:29:30.392Z,0
2018-06-13T01:30:30.487Z,0
2018-06-13T01:31:30.481Z,0
2018-06-13T01:32:29.959Z,0
2018-06-13T01:33:30.212Z,0
2018-06-13T01:34:30.465Z,0
2018-06-13T01:35:30.450Z,0
2018-06-13T01:36:30.715Z,0
2018-06-13T01:37:30.690Z,0
2018-06-13T01:38:30.174Z,0
2018-06-13T01:39:30.164Z,0
2018-06-13T01:40:30.161Z,0
2018-06-13T01:41:30.149Z,0
2018-06-13T01:42:30.150Z,0
2018-06-13T01:43:30.658Z,0
2018-06-13T01:44:30.395Z,0
2018-06-13T01:45:30.380Z,0
2018-06-13T01:46:30.638Z,0
2018-06-13T01:47:30.618Z,0
2018-06-13T01:48:30.358Z,0
2018-06-13T01:49:30.393Z,0
2018-06-13T01:50:30.084Z,0
2018-06-13T01:51:30.594Z,0
2018-06-13T01:52:30.329Z,0
2018-06-13T01:53:30.066Z,0
2018-06-13T01:54:30.564Z,0
2018-06-13T01:55:30.559Z,0
2018-06-13T01:56:30.555Z,0
2018-06-13T01:57:30.552Z,0
2018-06-13T01:58:30.278Z,0
2018-06-13T01:59:30.281Z,0
2018-06-13T02:00:30.273Z,0
2018-06-13T02:01:30.264Z,0
2018-06-13T02:02:30.510Z,0
2018-06-13T02:03:30.497Z,0
2018-06-13T02:04:30.234Z,0
2018-06-13T02:05:30.234Z,0
2018-06-13T02:06:30.488Z,0
2018-06-13T02:07:29.965Z,0
2018-06-13T02:08:30.477Z,0
2018-06-13T02:09:30.201Z,0
2018-06-13T02:10:30.191Z,0
2018-06-13T02:11:30.443Z,0
2018-06-13T02:12:30.173Z,0
2018-06-13T02:13:29.906Z,0
2018-06-13T02:14:30.165Z,0
2018-06-13T02:15:30.418Z,0
2018-06-13T02:16:30.410Z,0
2018-06-13T02:17:30.144Z,0
2018-06-13T02:18:30.133Z,0
2018-06-13T02:19:30.121Z,0
2018-06-13T02:20:30.375Z,0
2018-06-13T02:21:30.358Z,0
2018-06-13T02:22:30.357Z,0
2018-06-13T02:23:30.101Z,0
2018-06-13T02:24:30.342Z,0
2018-06-13T02:25:30.338Z,0
2018-06-13T02:26:30.074Z,0
2018-06-13T02:27:30.258Z,0
2018-06-13T02:28:30.315Z,0
2018-06-13T02:29:30.054Z,0
2018-06-13T02:30:30.049Z,0
2018-06-13T02:31:30.042Z,0
2018-06-13T02:32:30.284Z,0
2018-06-13T02:33:30.287Z,0
2018-06-13T02:34:30.293Z,0
2018-06-13T02:35:30.269Z,0
2018-06-13T02:36:30.254Z,0
2018-06-13T02:37:30.241Z,0
2018-06-13T02:38:30.239Z,0
2018-06-13T02:39:30.238Z,0
2018-06-13T02:40:29.965Z,0
2018-06-13T02:41:30.297Z,0
2018-06-13T02:42:29.951Z,0
2018-06-13T02:43:30.211Z,0
2018-06-13T02:44:29.935Z,0
2018-06-13T02:45:29.932Z,0
2018-06-13T02:46:30.177Z,0
2018-06-13T02:47:29.913Z,0
2018-06-13T02:48:29.907Z,0
2018-06-13T02:49:30.154Z,0
2018-06-13T02:50:29.890Z,0
2018-06-13T02:51:29.876Z,0
2018-06-13T02:52:29.879Z,0
2018-06-13T02:53:30.130Z,0
2018-06-13T02:54:29.605Z,0
2018-06-13T02:55:29.599Z,0
2018-06-13T02:56:29.589Z,0
2018-06-13T02:57:29.832Z,0
2018-06-13T02:58:30.109Z,0
2018-06-13T02:59:30.104Z,0
2018-06-13T03:00:29.558Z,0
2018-06-13T03:01:29.804Z,0
2018-06-13T03:02:30.049Z,0
2018-06-13T03:03:29.795Z,0
2018-06-13T03:04:29.785Z,0
2018-06-13T03:05:29.776Z,0
2018-06-13T03:06:29.764Z,0
2018-06-13T03:07:30.014Z,0
2018-06-13T03:08:29.747Z,5
2018-06-13T03:09:29.741Z,5
2018-06-13T03:10:29.984Z,5
2018-06-13T03:11:29.737Z,5
2018-06-13T03:12:29.967Z,5
2018-06-13T03:13:29.708Z,5
2018-06-13T03:14:29.698Z,5
2018-06-13T03:15:29.439Z,5
2018-06-13T03:16:29.734Z,5
2018-06-13T03:17:29.433Z,5
2018-06-13T03:18:29.932Z,5
2018-06-13T03:19:29.686Z,5
2018-06-13T03:20:29.655Z,10
2018-06-13T03:21:29.908Z,10
2018-06-13T03:22:29.632Z,10
2018-06-13T03:23:29.882Z,10
2018-06-13T03:24:29.883Z,10
2018-06-13T03:25:29.353Z,10
2018-06-13T03:26:29.347Z,10
2018-06-13T03:27:29.347Z,10
2018-06-13T03:28:29.851Z,10
2018-06-13T03:29:29.838Z,10
2018-06-13T03:30:29.837Z,10
2018-06-13T03:31:29.825Z,15
2018-06-13T03:32:29.805Z,15
2018-06-13T03:33:29.805Z,10
2018-06-13T03:34:29.801Z,10
2018-06-13T03:35:29.787Z,10
2018-06-13T03:36:29.524Z,10
2018-06-13T03:37:29.506Z,10
2018-06-13T03:38:29.246Z,10
2018-06-13T03:39:29.495Z,10
2018-06-13T03:40:29.228Z,10
2018-06-13T03:41:29.481Z,10
2018-06-13T03:42:29.473Z,10
2018-06-13T03:43:29.727Z,10
2018-06-13T03:44:29.499Z,10
2018-06-13T03:45:29.703Z,10
2018-06-13T03:46:29.703Z,15
2018-06-13T03:47:29.427Z,15
2018-06-13T03:48:29.430Z,15
2018-06-13T03:49:29.412Z,15
2018-06-13T03:50:29.415Z,15
2018-06-13T03:51:29.658Z,15
2018-06-13T03:52:29.389Z,15
2018-06-13T03:53:29.638Z,15
2018-06-13T03:54:29.118Z,15
2018-06-13T03:55:29.370Z,15
2018-06-13T03:56:29.362Z,15
2018-06-13T03:57:29.615Z,15
2018-06-13T03:58:29.349Z,15
2018-06-13T03:59:29.334Z,15
2018-06-13T04:00:29.321Z,15
2018-06-13T04:01:29.332Z,15
2018-06-13T04:02:29.310Z,10
2018-06-13T04:03:29.304Z,10
2018-06-13T04:04:29.552Z,10
2018-06-13T04:05:29.539Z,10
2018-06-13T04:06:29.279Z,10
2018-06-13T04:07:29.531Z,15
2018-06-13T04:08:29.520Z,15
2018-06-13T04:09:29.255Z,15
2018-06-13T04:10:29.255Z,20
2018-06-13T04:11:28.995Z,20
2018-06-13T04:12:29.228Z,25
2018-06-13T04:13:29.477Z,25
2018-06-13T04:14:29.212Z,30
2018-06-13T04:15:29.460Z,30
2018-06-13T04:16:29.451Z,30
2018-06-13T04:17:29.241Z,35
2018-06-13T04:18:29.177Z,35
2018-06-13T04:19:29.224Z,35
2018-06-13T04:20:29.165Z,40
2018-06-13T04:21:29.163Z,40
2018-06-13T04:22:29.616Z,40
2018-06-13T04:23:29.142Z,40
2018-06-13T04:24:28.877Z,40
2018-06-13T04:25:29.168Z,40
2018-06-13T04:26:29.381Z,40
2018-06-13T04:27:29.364Z,40
2018-06-13T04:28:29.358Z,40
2018-06-13T04:29:29.350Z,40
2018-06-13T04:30:29.414Z,40
2018-06-13T04:31:28.561Z,40
2018-06-13T04:32:28.552Z,40
2018-06-13T04:33:29.055Z,40
2018-06-13T04:34:29.055Z,40
2018-06-13T04:35:29.042Z,40
2018-06-13T04:36:28.782Z,40
2018-06-13T04:37:28.781Z,40
2018-06-13T04:38:29.272Z,40
2018-06-13T04:39:29.015Z,40
2018-06-13T04:40:29.006Z,40
2018-06-13T04:41:29.256Z,40
2018-06-13T04:42:29.246Z,35
2018-06-13T04:43:29.247Z,35
2018-06-13T04:44:28.724Z,35
2018-06-13T04:45:28.709Z,35
2018-06-13T04:46:28.692Z,30
2018-06-13T04:47:28.953Z,30
2018-06-13T04:48:29.199Z,25
2018-06-13T04:49:28.419Z,30
2018-06-13T04:50:28.951Z,35
2018-06-13T04:51:28.916Z,35
2018-06-13T04:52:29.160Z,35
2018-06-13T04:53:29.149Z,40
2018-06-13T04:54:28.891Z,45
2018-06-13T04:55:29.146Z,45
2018-06-13T04:56:28.617Z,45
2018-06-13T04:57:28.605Z,50
2018-06-13T04:58:29.321Z,50
2018-06-13T04:59:28.859Z,50
2018-06-13T05:00:28.590Z,55
2018-06-13T05:01:29.099Z,65
2018-06-13T05:02:28.821Z,75
2018-06-13T05:03:28.812Z,80
2018-06-13T05:04:29.064Z,80
2018-06-13T05:05:29.055Z,75
2018-06-13T05:06:28.788Z,70
2018-06-13T05:07:28.788Z,75
2018-06-13T05:08:29.034Z,85
2018-06-13T05:09:29.030Z,90
2018-06-13T05:10:28.500Z,100
2018-06-13T05:11:28.495Z,110
2018-06-13T05:12:28.484Z,115
2018-06-13T05:13:28.733Z,110
2018-06-13T05:14:28.468Z,120
2018-06-13T05:15:28.458Z,125
2018-06-13T05:16:28.984Z,125
2018-06-13T05:17:28.715Z,135
2018-06-13T05:18:28.949Z,145
2018-06-13T05:19:28.424Z,155
2018-06-13T05:20:28.933Z,165
2018-06-13T05:21:28.671Z,170
2018-06-13T05:22:28.908Z,160
2018-06-13T05:23:28.908Z,150
2018-06-13T05:24:28.134Z,150
2018-06-13T05:25:28.378Z,150
2018-06-13T05:26:28.888Z,150
2018-06-13T05:27:28.632Z,155
2018-06-13T05:28:28.611Z,160
2018-06-13T05:29:28.601Z,155
2018-06-13T05:30:28.597Z,145
2018-06-13T05:31:28.856Z,140
2018-06-13T05:32:28.579Z,130
2018-06-13T05:33:28.572Z,135
2018-06-13T05:34:28.716Z,135
2018-06-13T05:35:28.037Z,135
2018-06-13T05:36:28.819Z,130
2018-06-13T05:37:28.550Z,125
2018-06-13T05:38:28.793Z,120
2018-06-13T05:39:28.778Z,120
2018-06-13T05:40:28.785Z,120
2018-06-13T05:41:28.765Z,115
2018-06-13T05:42:28.498Z,105
2018-06-13T05:43:28.497Z,100
2018-06-13T05:44:28.500Z,110
2018-06-13T05:45:28.477Z,120
2018-06-13T05:46:28.482Z,130
2018-06-13T05:47:28.724Z,145
2018-06-13T05:48:28.204Z,140
2018-06-13T05:49:28.194Z,140
2018-06-13T05:50:28.696Z,140
2018-06-13T05:51:28.431Z,135
2018-06-13T05:52:28.421Z,135
2018-06-13T05:53:28.413Z,150
2018-06-13T05:54:28.163Z,150
2018-06-13T05:55:28.148Z,135
2018-06-13T05:56:28.134Z,125
2018-06-13T05:57:28.652Z,120
2018-06-13T05:58:28.633Z,120
2018-06-13T05:59:27.851Z,120
2018-06-13T06:00:28.377Z,130
2018-06-13T06:01:28.565Z,120
2018-06-13T06:02:28.102Z,140
2018-06-13T06:03:28.344Z,155
2018-06-13T06:04:28.330Z,165
2018-06-13T06:05:28.333Z,165
2018-06-13T06:06:28.628Z,170
2018-06-13T06:07:28.311Z,175
2018-06-13T06:08:28.566Z,180
2018-06-13T06:09:28.034Z,190
2018-06-13T06:10:28.888Z,210
2018-06-13T06:11:28.282Z,215
2018-06-13T06:12:28.532Z,220
2018-06-13T06:13:28.525Z,210
2018-06-13T06:14:28.258Z,195
2018-06-13T06:15:28.512Z,180
2018-06-13T06:16:28.245Z,185
2018-06-13T06:17:28.237Z,190
2018-06-13T06:18:28.745Z,190
2018-06-13T06:19:28.217Z,185
2018-06-13T06:20:28.471Z,195
2018-06-13T06:21:28.215Z,190
2018-06-13T06:22:28.457Z,195
2018-06-13T06:23:28.464Z,200
2018-06-13T06:24:27.925Z,185
2018-06-13T06:25:28.170Z,185
2018-06-13T06:26:28.423Z,190
2018-06-13T06:27:28.169Z,190
2018-06-13T06:28:28.155Z,180
2018-06-13T06:29:27.642Z,200
2018-06-13T06:30:28.399Z,205
2018-06-13T06:31:28.389Z,195
2018-06-13T06:32:28.124Z,190
2018-06-13T06:33:28.376Z,200
2018-06-13T06:34:28.108Z,200
2018-06-13T06:35:28.100Z,190
2018-06-13T06:36:28.365Z,195
2018-06-13T06:37:28.087Z,195
2018-06-13T06:38:28.334Z,190
2018-06-13T06:39:27.817Z,190
2018-06-13T06:40:28.061Z,195
2018-06-13T06:41:28.058Z,195
2018-06-13T06:42:28.313Z,195
2018-06-13T06:43:27.782Z,195
2018-06-13T06:44:27.525Z,195
2018-06-13T06:45:28.036Z,195
2018-06-13T06:46:28.276Z,185
2018-06-13T06:47:28.024Z,175
2018-06-13T06:48:28.264Z,185
2018-06-13T06:49:27.744Z,195
2018-06-13T06:50:28.260Z,205
2018-06-13T06:51:27.734Z,200
2018-06-13T06:52:27.718Z,200
2018-06-13T06:53:27.990Z,205
2018-06-13T06:54:27.974Z,185
2018-06-13T06:55:28.089Z,175
2018-06-13T06:56:28.215Z,190
2018-06-13T06:57:28.203Z,195
2018-06-13T06:58:28.194Z,185
2018-06-13T06:59:28.185Z,185
2018-06-13T07:00:28.178Z,185
2018-06-13T07:01:27.909Z,185
2018-06-13T07:02:28.161Z,205
2018-06-13T07:03:28.169Z,225
2018-06-13T07:04:27.374Z,215
2018-06-13T07:05:28.134Z,205
2018-06-13T07:06:27.873Z,215
2018-06-13T07:07:27.876Z,240
2018-06-13T07:08:27.862Z,240
2018-06-13T07:09:27.864Z,235
2018-06-13T07:10:28.101Z,220
2018-06-13T07:11:28.093Z,225
2018-06-13T07:12:27.856Z,195
2018-06-13T07:13:28.093Z,200
2018-06-13T07:14:27.811Z,260
2018-06-13T07:15:27.821Z,255
2018-06-13T07:16:27.805Z,230
2018-06-13T07:17:27.790Z,210
2018-06-13T07:18:27.789Z,220
2018-06-13T07:19:28.082Z,180
2018-06-13T07:20:27.777Z,180
2018-06-13T07:21:27.817Z,235
2018-06-13T07:22:28.014Z,250
2018-06-13T07:23:28.006Z,235
2018-06-13T07:24:27.493Z,235
2018-06-13T07:25:27.491Z,245
2018-06-13T07:26:27.987Z,300
2018-06-13T07:27:27.977Z,285
2018-06-13T07:28:27.454Z,280
2018-06-13T07:29:27.710Z,345
2018-06-13T07:30:27.952Z,360
2018-06-13T07:31:27.952Z,375
2018-06-13T07:32:27.688Z,415
2018-06-13T07:33:27.429Z,460
2018-06-13T07:34:27.678Z,475
2018-06-13T07:35:27.663Z,445
2018-06-13T07:36:27.675Z,385
2018-06-13T07:37:27.662Z,295
2018-06-13T07:38:27.647Z,265
2018-06-13T07:39:27.388Z,255
2018-06-13T07:40:27.903Z,305
2018-06-13T07:41:28.018Z,335
2018-06-13T07:42:27.361Z,360
2018-06-13T07:43:27.614Z,360
2018-06-13T07:44:27.352Z,385
2018-06-13T07:45:27.863Z,450
2018-06-13T07:46:27.604Z,465
2018-06-13T07:47:27.601Z,400
2018-06-13T07:48:27.840Z,245
2018-06-13T07:49:27.319Z,220
2018-06-13T07:50:27.836Z,215
2018-06-13T07:51:27.567Z,140
2018-06-13T07:52:27.558Z,140
2018-06-13T07:53:27.555Z,160
2018-06-13T07:54:27.813Z,120
2018-06-13T07:55:27.549Z,130
2018-06-13T07:56:27.532Z,150
2018-06-13T07:57:27.565Z,170
2018-06-13T07:58:27.777Z,215
2018-06-13T07:59:27.263Z,265
2018-06-13T08:00:27.766Z,280
2018-06-13T08:01:27.761Z,225
2018-06-13T08:02:27.983Z,190
2018-06-13T08:03:27.488Z,160
2018-06-13T08:04:27.477Z,155
2018-06-13T08:05:27.475Z,155
2018-06-13T08:06:27.723Z,155
2018-06-13T08:07:27.713Z,130
2018-06-13T08:08:28.157Z,145
2018-06-13T08:09:27.447Z,150
2018-06-13T08:10:27.702Z,170
2018-06-13T08:11:27.440Z,180
2018-06-13T08:12:27.427Z,175
2018-06-13T08:13:27.165Z,165
2018-06-13T08:14:27.673Z,165
2018-06-13T08:15:27.670Z,165
2018-06-13T08:16:27.396Z,190
2018-06-13T08:17:27.133Z,185
2018-06-13T08:18:27.388Z,180
2018-06-13T08:19:27.641Z,210
2018-06-13T08:20:27.383Z,235
2018-06-13T08:21:27.374Z,230
2018-06-13T08:22:27.615Z,210
2018-06-13T08:23:27.348Z,185
2018-06-13T08:24:27.608Z,185
2018-06-13T08:25:27.600Z,175
2018-06-13T08:26:27.591Z,185
2018-06-13T08:27:27.588Z,185
2018-06-13T08:28:27.324Z,170
2018-06-13T08:29:27.564Z,175
2018-06-13T08:30:27.306Z,150
2018-06-13T08:31:27.039Z,150
2018-06-13T08:32:27.554Z,140
2018-06-13T08:33:27.546Z,130
2018-06-13T08:34:27.543Z,115
2018-06-13T08:35:27.275Z,105
2018-06-13T08:36:27.258Z,95
2018-06-13T08:37:27.513Z,80
2018-06-13T08:38:27.515Z,75
2018-06-13T08:39:27.496Z,75
2018-06-13T08:40:27.493Z,95
2018-06-13T08:41:26.712Z,105
2018-06-13T08:42:27.493Z,120
2018-06-13T08:43:27.213Z,150
2018-06-13T08:44:27.456Z,180
2018-06-13T08:45:27.203Z,175
2018-06-13T08:46:27.446Z,180
2018-06-13T08:47:27.445Z,155
2018-06-13T08:48:26.916Z,150
2018-06-13T08:49:27.182Z,160
2018-06-13T08:50:26.914Z,140
2018-06-13T08:51:27.159Z,115
2018-06-13T08:52:27.155Z,130
2018-06-13T08:53:27.145Z,150
2018-06-13T08:54:27.395Z,150
2018-06-13T08:55:27.126Z,145
2018-06-13T08:56:26.862Z,145
2018-06-13T08:57:27.370Z,140
2018-06-13T08:58:27.363Z,145
2018-06-13T08:59:27.352Z,160
2018-06-13T09:00:27.348Z,160
2018-06-13T09:01:27.081Z,155
2018-06-13T09:02:27.075Z,155
2018-06-13T09:03:27.573Z,155
2018-06-13T09:04:27.310Z,160
2018-06-13T09:05:27.308Z,140
2018-06-13T09:06:27.314Z,130
2018-06-13T09:07:27.290Z,130
2018-06-13T09:08:27.024Z,135
2018-06-13T09:09:27.023Z,140
2018-06-13T09:10:27.015Z,140
2018-06-13T09:11:27.273Z,145
2018-06-13T09:12:27.001Z,150
2018-06-13T09:13:27.247Z,160
2018-06-13T09:14:26.735Z,170
2018-06-13T09:15:27.234Z,190
2018-06-13T09:16:27.230Z,200
2018-06-13T09:17:27.216Z,220
2018-06-13T09:18:27.222Z,235
2018-06-13T09:19:26.945Z,235
2018-06-13T09:20:26.938Z,240
2018-06-13T09:21:26.926Z,250
2018-06-13T09:22:27.285Z,255
2018-06-13T09:23:26.656Z,250
2018-06-13T09:24:26.654Z,235
2018-06-13T09:25:27.168Z,235
2018-06-13T09:26:27.151Z,230
2018-06-13T09:27:27.146Z,235
2018-06-13T09:28:26.890Z,250
2018-06-13T09:29:26.878Z,275
2018-06-13T09:30:27.129Z,295
2018-06-13T09:31:27.012Z,340
2018-06-13T09:32:26.855Z,380
2018-06-13T09:33:26.584Z,425
2018-06-13T09:34:26.856Z,450
2018-06-13T09:35:26.572Z,480
2018-06-13T09:36:26.814Z,490
2018-06-13T09:37:27.139Z,440
2018-06-13T09:38:27.067Z,420
2018-06-13T09:39:27.069Z,420
2018-06-13T09:40:26.790Z,400
2018-06-13T09:41:26.785Z,400
2018-06-13T09:42:27.050Z,415
2018-06-13T09:43:26.776Z,400
2018-06-13T09:44:27.035Z,370
2018-06-13T09:45:27.019Z,320
2018-06-13T09:46:27.019Z,275
2018-06-13T09:47:33.111Z,255
2018-06-13T09:48:26.494Z,260
2018-06-13T09:49:27.003Z,255
2018-06-13T09:50:26.481Z,260
2018-06-13T09:51:26.987Z,255
2018-06-13T09:52:26.718Z,245
2018-06-13T09:53:26.969Z,245
2018-06-13T09:54:26.757Z,265
2018-06-13T09:55:26.958Z,285
2018-06-13T09:56:26.969Z,275
2018-06-13T09:57:26.686Z,255
2018-06-13T09:58:26.930Z,235
2018-06-13T09:59:26.671Z,195
2018-06-13T10:00:26.156Z,180
2018-06-13T10:01:26.669Z,175
2018-06-13T10:02:26.658Z,180
2018-06-13T10:03:26.912Z,175
2018-06-13T10:04:26.385Z,185
2018-06-13T10:05:26.375Z,215
2018-06-13T10:06:26.886Z,225
2018-06-13T10:07:26.895Z,220
2018-06-13T10:08:26.633Z,220
2018-06-13T10:09:26.611Z,215
2018-06-13T10:10:26.619Z,210
2018-06-13T10:11:26.864Z,220
2018-06-13T10:12:26.853Z,215
2018-06-13T10:13:26.580Z,210
2018-06-13T10:14:26.581Z,205
2018-06-13T10:15:26.053Z,185
2018-06-13T10:16:26.312Z,170
2018-06-13T10:17:26.309Z,170
2018-06-13T10:18:26.557Z,175
2018-06-13T10:19:26.290Z,170
2018-06-13T10:20:26.537Z,170
2018-06-13T10:21:26.538Z,195
2018-06-13T10:22:26.887Z,220
2018-06-13T10:23:26.522Z,240
2018-06-13T10:24:26.513Z,250
2018-06-13T10:25:26.314Z,260
2018-06-13T10:26:26.754Z,270
2018-06-13T10:27:26.236Z,285
2018-06-13T10:28:26.740Z,290
2018-06-13T10:29:26.474Z,300
2018-06-13T10:30:26.494Z,320
2018-06-13T10:31:26.723Z,345
2018-06-13T10:32:26.712Z,365
2018-06-13T10:33:26.728Z,360
2018-06-13T10:34:27.108Z,355
2018-06-13T10:35:26.689Z,340
2018-06-13T10:36:26.440Z,320
2018-06-13T10:37:26.170Z,320
2018-06-13T10:38:26.418Z,330
2018-06-13T10:39:26.673Z,350
2018-06-13T10:40:26.407Z,350
2018-06-13T10:41:26.397Z,335
2018-06-13T10:42:26.399Z,325
2018-06-13T10:43:26.662Z,340
2018-06-13T10:44:26.380Z,345
2018-06-13T10:45:26.372Z,335
2018-06-13T10:46:26.377Z,340
2018-06-13T10:47:26.631Z,365
2018-06-13T10:48:26.723Z,395
2018-06-13T10:49:26.362Z,430
2018-06-13T10:50:26.341Z,460
2018-06-13T10:51:26.348Z,505
2018-06-13T10:52:26.598Z,540
2018-06-13T10:53:26.317Z,570
2018-06-13T10:54:26.058Z,590
2018-06-13T10:55:26.572Z,580
2018-06-13T10:56:25.796Z,560
2018-06-13T10:57:26.300Z,565
2018-06-13T10:58:26.555Z,590
2018-06-13T10:59:26.547Z,585
2018-06-13T11:00:26.025Z,560
2018-06-13T11:01:26.539Z,550
2018-06-13T11:02:26.534Z,580
2018-06-13T11:03:26.015Z,625
2018-06-13T11:04:26.527Z,580
2018-06-13T11:05:26.263Z,505
2018-06-13T11:06:26.258Z,470
2018-06-13T11:07:26.253Z,465
2018-06-13T11:08:26.252Z,480
2018-06-13T11:09:26.241Z,470
2018-06-13T11:10:26.497Z,460
2018-06-13T11:11:26.237Z,450
2018-06-13T11:12:25.979Z,430
2018-06-13T11:13:26.482Z,400
2018-06-13T11:14:25.964Z,370
2018-06-13T11:15:26.226Z,345
2018-06-13T11:16:26.219Z,355
2018-06-13T11:17:26.468Z,390
2018-06-13T11:18:26.469Z,445
2018-06-13T11:19:26.462Z,475
2018-06-13T11:20:25.845Z,435
2018-06-13T11:21:26.194Z,435
2018-06-13T11:22:26.439Z,430
2018-06-13T11:23:26.446Z,430
2018-06-13T11:24:25.931Z,425
2018-06-13T11:25:26.435Z,425
2018-06-13T11:26:26.435Z,425
2018-06-13T11:27:26.164Z,415
2018-06-13T11:28:26.416Z,385
2018-06-13T11:29:26.154Z,345
2018-06-13T11:30:26.412Z,310
2018-06-13T11:31:26.474Z,305
2018-06-13T11:32:26.149Z,320
2018-06-13T11:33:25.633Z,335
2018-06-13T11:34:26.397Z,350
2018-06-13T11:35:26.135Z,395
2018-06-13T11:36:26.132Z,430
2018-06-13T11:37:26.378Z,455
2018-06-13T11:38:26.376Z,465
2018-06-13T11:39:25.860Z,480
2018-06-13T11:40:26.104Z,495
2018-06-13T11:41:26.518Z,500
2018-06-13T11:42:26.368Z,510
2018-06-13T11:43:26.396Z,530
2018-06-13T11:44:26.356Z,530
2018-06-13T11:45:26.351Z,505
2018-06-13T11:46:26.346Z,485
2018-06-13T11:47:26.102Z,465
2018-06-13T11:48:26.344Z,480
2018-06-13T11:49:26.347Z,515
2018-06-13T11:50:25.812Z,515
2018-06-13T11:51:26.320Z,500
2018-06-13T11:52:26.063Z,535
2018-06-13T11:53:25.807Z,565
2018-06-13T11:54:26.049Z,595
2018-06-13T11:55:26.313Z,605
2018-06-13T11:56:25.782Z,590
2018-06-13T11:57:25.527Z,555
2018-06-13T11:58:26.294Z,545
2018-06-13T11:59:26.287Z,585
2018-06-13T12:00:26.570Z,600
2018-06-13T12:01:26.029Z,595
2018-06-13T12:02:26.027Z,605
2018-06-13T12:03:26.278Z,620
2018-06-13T12:04:26.274Z,590
2018-06-13T12:05:26.011Z,540
2018-06-13T12:06:26.265Z,525
2018-06-13T12:07:26.010Z,510
2018-06-13T12:08:26.017Z,440
2018-06-13T12:09:26.256Z,405
2018-06-13T12:10:26.245Z,360
2018-06-13T12:11:26.000Z,305
2018-06-13T12:12:25.984Z,240
2018-06-13T12:13:25.980Z,215
2018-06-13T12:14:25.981Z,200
2018-06-13T12:15:25.976Z,175
2018-06-13T12:16:25.972Z,155
2018-06-13T12:17:25.982Z,150
2018-06-13T12:18:25.710Z,145
2018-06-13T12:19:26.215Z,135
2018-06-13T12:20:25.709Z,130
2018-06-13T12:21:25.955Z,120
2018-06-13T12:22:25.969Z,115
2018-06-13T12:23:25.941Z,115
2018-06-13T12:24:25.946Z,120
2018-06-13T12:25:26.202Z,120
2018-06-13T12:26:26.187Z,115
2018-06-13T12:27:25.931Z,110
2018-06-13T12:28:25.924Z,110
2018-06-13T12:29:25.415Z,110
2018-06-13T12:30:25.925Z,110
2018-06-13T12:31:25.905Z,110
2018-06-13T12:32:25.906Z,110
2018-06-13T12:33:25.395Z,115
2018-06-13T12:34:25.908Z,120
2018-06-13T12:35:26.148Z,130
2018-06-13T12:36:25.883Z,130
2018-06-13T12:37:25.939Z,135
2018-06-13T12:38:26.129Z,140
2018-06-13T12:39:26.127Z,150
2018-06-13T12:40:26.052Z,160
2018-06-13T12:41:25.604Z,170
2018-06-13T12:42:26.108Z,180
2018-06-13T12:43:25.848Z,185
2018-06-13T12:44:26.097Z,190
2018-06-13T12:45:26.104Z,200
2018-06-13T12:46:25.826Z,210
2018-06-13T12:47:25.828Z,220
2018-06-13T12:48:25.821Z,230
2018-06-13T12:49:26.225Z,235
2018-06-13T12:50:26.063Z,240
2018-06-13T12:51:25.798Z,235
2018-06-13T12:52:25.799Z,240
2018-06-13T12:53:26.040Z,260
2018-06-13T12:54:26.037Z,290
2018-06-13T12:55:25.523Z,300
2018-06-13T12:56:26.026Z,320
2018-06-13T12:57:26.022Z,335
2018-06-13T12:58:25.755Z,350
2018-06-13T12:59:25.758Z,365
2018-06-13T13:00:26.030Z,380
2018-06-13T13:01:25.998Z,410
2018-06-13T13:02:25.739Z,435
2018-06-13T13:03:25.739Z,455
2018-06-13T13:04:25.732Z,490
2018-06-13T13:05:25.975Z,495
2018-06-13T13:06:25.488Z,515
2018-06-13T13:07:25.707Z,535
2018-06-13T13:08:25.712Z,535
2018-06-13T13:09:25.714Z,525
2018-06-13T13:10:26.052Z,495
2018-06-13T13:11:25.433Z,460
2018-06-13T13:12:25.944Z,450
2018-06-13T13:13:25.932Z,460
2018-06-13T13:14:25.945Z,480
2018-06-13T13:15:25.944Z,470
2018-06-13T13:16:25.161Z,440
2018-06-13T13:17:25.406Z,395
2018-06-13T13:18:25.661Z,315
2018-06-13T13:19:25.915Z,250
2018-06-13T13:20:25.977Z,190
2018-06-13T13:21:25.913Z,165
2018-06-13T13:22:25.647Z,135
2018-06-13T13:23:25.902Z,120
2018-06-13T13:24:25.893Z,110
2018-06-13T13:25:25.636Z,100
2018-06-13T13:26:25.889Z,95
2018-06-13T13:27:25.893Z,90
2018-06-13T13:28:25.881Z,85
2018-06-13T13:29:25.879Z,85
2018-06-13T13:30:26.026Z,95
2018-06-13T13:31:25.869Z,105
2018-06-13T13:32:25.906Z,115
2018-06-13T13:33:25.854Z,125
2018-06-13T13:34:25.852Z,130
2018-06-13T13:35:25.854Z,135
2018-06-13T13:36:25.843Z,140
2018-06-13T13:37:25.584Z,155
2018-06-13T13:38:25.841Z,165
2018-06-13T13:39:25.574Z,175
2018-06-13T13:40:25.571Z,185
2018-06-13T13:41:25.565Z,190
2018-06-13T13:42:25.309Z,205
2018-06-13T13:43:25.553Z,215
2018-06-13T13:44:25.548Z,225
2018-06-13T13:45:25.754Z,225
2018-06-13T13:46:25.282Z,230
2018-06-13T13:47:25.798Z,245
2018-06-13T13:48:25.269Z,265
2018-06-13T13:49:25.778Z,275
2018-06-13T13:50:25.777Z,280
2018-06-13T13:51:25.506Z,285
2018-06-13T13:52:25.249Z,295
2018-06-13T13:53:25.746Z,310
2018-06-13T13:54:25.493Z,315
2018-06-13T13:55:25.488Z,315
2018-06-13T13:56:25.745Z,315
2018-06-13T13:57:25.225Z,315
2018-06-13T13:58:25.751Z,315
2018-06-13T13:59:25.727Z,305
2018-06-13T14:00:25.901Z,300
2018-06-13T14:01:25.463Z,305
2018-06-13T14:02:25.490Z,310
2018-06-13T14:03:25.447Z,310